Time;durP1;ratioP1;P1;durP2;ratioP2;P2;SDS_P1;SDS_P2;PMS_P1;PMS_P2;Temp;Humidity;BMP_temperature;BMP_pressure;BME280_temperature;BME280_humidity;BME280_pressure;Samples;Min_cycle;Max_cycle;Signal;HPM_P1;HPM_P2
2023/03/24 00:01:00;;;;;;;10.82;5.68;;;;;;;12.44;94.64;97596.00;2532094;29;20048;-84
2023/03/24 00:02:17;;;;;;;10.05;5.68;;;;;;;12.55;94.14;97604.16;2526630;29;20049;-85
2023/03/24 00:03:33;;;;;;;11.57;6.07;;;;;;;12.61;93.14;97599.56;2529995;29;20134;-84
2023/03/24 00:04:51;;;;;;;10.85;6.03;;;;;;;12.43;93.68;97596.88;2532168;29;20056;-85
2023/03/24 00:06:12;;;;;;;12.07;5.75;;;;;;;12.47;92.74;97598.47;2532520;29;20139;-85
2023/03/24 00:07:29;;;;;;;9.52;5.22;;;;;;;12.20;96.53;97588.38;2526335;29;20143;-84
2023/03/24 00:08:46;;;;;;;9.15;5.80;;;;;;;12.24;97.53;97595.19;2532494;29;20050;-85
2023/03/24 00:10:03;;;;;;;11.25;5.80;;;;;;;12.35;94.98;97599.88;2530613;29;20063;-86
2023/03/24 00:11:19;;;;;;;8.38;4.68;;;;;;;12.20;97.88;97587.53;2530775;29;20152;-85
2023/03/24 00:12:41;;;;;;;9.25;5.63;;;;;;;12.33;95.36;97582.53;2530509;29;20139;-86
2023/03/24 00:13:57;;;;;;;10.05;5.45;;;;;;;12.43;93.24;97584.63;2530323;29;20060;-84
2023/03/24 00:15:18;;;;;;;9.38;4.90;;;;;;;12.33;94.91;97595.66;2526802;29;20056;-85
2023/03/24 00:16:37;;;;;;;9.20;5.00;;;;;;;12.28;94.64;97591.47;2531358;29;20719;-86
2023/03/24 00:17:54;;;;;;;9.40;5.40;;;;;;;12.19;98.20;97591.94;2529916;29;20503;-87
2023/03/24 00:19:12;;;;;;;9.73;5.30;;;;;;;12.34;94.87;97592.94;2531552;29;20052;-85
2023/03/24 00:20:28;;;;;;;12.90;6.03;;;;;;;12.33;96.62;97591.25;2529522;29;20057;-84
2023/03/24 00:21:43;;;;;;;14.18;6.80;;;;;;;12.17;97.86;97591.16;2528731;29;20053;-85
2023/03/24 00:22:59;;;;;;;11.77;6.55;;;;;;;12.11;97.01;97588.81;2531507;29;20090;-85
2023/03/24 00:24:15;;;;;;;13.85;6.55;;;;;;;11.99;100.00;97583.19;2531156;29;20518;-84
2023/03/24 00:25:34;;;;;;;12.98;6.95;;;;;;;11.91;100.00;97587.97;2531125;29;20528;-84
2023/03/24 00:26:50;;;;;;;9.68;5.47;;;;;;;12.17;100.00;97590.28;2531518;29;20075;-85
2023/03/24 00:28:06;;;;;;;8.48;5.40;;;;;;;12.33;97.38;97585.16;2531107;29;20080;-84
2023/03/24 00:29:24;;;;;;;9.25;5.72;;;;;;;12.37;95.47;97587.56;2529755;29;20052;-84
2023/03/24 00:30:40;;;;;;;10.20;5.53;;;;;;;12.43;95.49;97581.13;2531062;29;20433;-85
2023/03/24 00:31:56;;;;;;;9.35;5.85;;;;;;;12.45;96.07;97587.19;2530246;29;20052;-85
2023/03/24 00:33:12;;;;;;;7.82;5.30;;;;;;;12.47;95.12;97576.59;2530594;29;20048;-87
2023/03/24 00:34:27;;;;;;;9.07;5.70;;;;;;;12.61;93.43;97581.16;2529794;29;20546;-87
2023/03/24 00:35:44;;;;;;;10.20;6.18;;;;;;;12.64;93.00;97581.88;2529521;29;20048;-88
2023/03/24 00:36:59;;;;;;;9.88;5.75;;;;;;;12.19;97.23;97577.94;2530685;29;20064;-85
2023/03/24 00:38:15;;;;;;;10.60;5.65;;;;;;;12.08;99.95;97576.72;2529576;29;20747;-86
2023/03/24 00:39:31;;;;;;;10.80;5.63;;;;;;;12.10;100.00;97576.63;2530619;29;20052;-86
2023/03/24 00:40:47;;;;;;;9.05;4.90;;;;;;;11.81;100.00;97573.59;2532011;29;20506;-85
2023/03/24 00:42:03;;;;;;;8.25;5.05;;;;;;;12.34;98.60;97571.13;2530981;29;20056;-84
2023/03/24 00:43:19;;;;;;;9.77;5.55;;;;;;;12.42;95.24;97571.56;2526090;29;20297;-84
2023/03/24 00:44:36;;;;;;;7.97;4.63;;;;;;;12.30;96.50;97562.53;2530581;29;20589;-85
2023/03/24 00:46:26;;;;;;;10.70;4.75;;;;;;;12.30;94.85;97565.16;2531943;29;20053;-85
2023/03/24 00:47:43;;;;;;;7.13;4.47;;;;;;;12.49;93.11;97567.72;2531912;29;20484;-85
2023/03/24 00:49:05;;;;;;;9.55;5.18;;;;;;;12.36;96.08;97561.38;2525828;29;20096;-84
2023/03/24 00:50:25;;;;;;;9.15;5.15;;;;;;;12.61;92.46;97560.16;2530576;29;20052;-84
2023/03/24 00:51:41;;;;;;;9.48;5.13;;;;;;;12.58;92.22;97566.41;2532312;29;20139;-88
2023/03/24 00:53:00;;;;;;;8.38;4.80;;;;;;;12.40;92.80;97560.28;2529421;29;20052;-85
2023/03/24 00:54:20;;;;;;;7.38;4.45;;;;;;;12.05;97.46;97561.09;2529920;29;20057;-86
2023/03/24 00:55:36;;;;;;;7.15;4.32;;;;;;;12.22;95.12;97560.28;2530963;29;20131;-86
2023/03/24 00:56:54;;;;;;;7.00;4.20;;;;;;;12.04;99.84;97562.03;2526201;29;20063;-85
2023/03/24 00:58:16;;;;;;;6.60;4.13;;;;;;;12.09;99.08;97553.94;2529931;29;20049;-85
2023/03/24 00:59:36;;;;;;;;;;;;;;;12.40;94.50;97553.28;2532983;29;20567;-85
2023/03/24 01:00:54;;;;;;;8.27;4.78;;;;;;;12.51;93.20;97554.53;2531171;29;20026;-85
2023/03/24 01:02:11;;;;;;;8.63;4.95;;;;;;;12.64;92.13;97552.13;2530215;29;20131;-87
2023/03/24 01:03:27;;;;;;;8.68;5.50;;;;;;;12.55;93.01;97554.28;2529543;29;20144;-85
2023/03/24 01:04:46;;;;;;;12.25;6.13;;;;;;;12.20;95.85;97549.03;2531460;29;20048;-85
2023/03/24 01:06:02;;;;;;;14.95;7.25;;;;;;;12.49;93.39;97556.34;2532289;29;20480;-88
2023/03/24 01:07:19;;;;;;;10.73;6.38;;;;;;;12.23;95.58;97551.50;2531809;29;20135;-85
2023/03/24 01:08:34;;;;;;;12.77;7.10;;;;;;;12.46;93.10;97557.38;2529445;29;20049;-87
2023/03/24 01:09:56;;;;;;;15.95;7.20;;;;;;;12.39;93.81;97553.34;2530389;29;20060;-85
2023/03/24 01:11:12;;;;;;;12.48;6.85;;;;;;;12.04;97.90;97543.66;2532147;29;20060;-85
2023/03/24 01:12:35;;;;;;;13.18;7.70;;;;;;;12.06;98.70;97554.09;2531301;29;20056;-86
2023/03/24 01:13:53;;;;;;;12.55;7.28;;;;;;;12.33;95.73;97546.63;2531544;29;20080;-85
2023/03/24 01:15:15;;;;;;;15.57;7.53;;;;;;;12.30;95.98;97552.03;2528270;29;20100;-85
2023/03/24 01:16:30;;;;;;;13.33;7.07;;;;;;;12.23;96.60;97546.25;2530776;29;20496;-85
2023/03/24 01:17:47;;;;;;;13.40;7.20;;;;;;;12.15;97.19;97545.75;2525982;29;20907;-85
2023/03/24 01:19:03;;;;;;;19.02;7.57;;;;;;;12.11;96.79;97542.44;2531344;29;20143;-85
2023/03/24 01:20:21;;;;;;;13.38;6.03;;;;;;;12.04;99.23;97543.66;2529230;29;20057;-85
2023/03/24 01:21:38;;;;;;;12.40;5.63;;;;;;;11.76;99.94;97542.31;2530327;29;20531;-85
2023/03/24 01:22:53;;;;;;;9.95;5.40;;;;;;;11.99;98.54;97538.59;2530674;29;20082;-85
2023/03/24 01:24:09;;;;;;;8.18;4.80;;;;;;;12.17;97.02;97537.81;2531869;29;20053;-85
2023/03/24 01:25:26;;;;;;;14.80;5.13;;;;;;;12.28;95.74;97543.41;2529371;29;20052;-85
2023/03/24 01:26:42;;;;;;;7.40;4.30;;;;;;;12.43;94.77;97533.88;2531245;29;20055;-85
2023/03/24 01:27:58;;;;;;;11.43;5.00;;;;;;;12.26;95.09;97534.75;2531721;29;20056;-85
2023/03/24 01:29:13;;;;;;;7.10;4.38;;;;;;;12.23;95.00;97529.66;2531228;29;20060;-84
2023/03/24 01:30:30;;;;;;;10.63;4.93;;;;;;;12.34;96.59;97532.56;2530962;29;20068;-84
2023/03/24 01:31:45;;;;;;;9.82;5.10;;;;;;;12.29;97.69;97529.34;2531191;29;20056;-85
2023/03/24 01:33:01;;;;;;;13.07;5.40;;;;;;;12.35;94.49;97533.44;2530081;29;20049;-85
2023/03/24 01:34:16;;;;;;;11.65;5.18;;;;;;;12.42;94.86;97529.56;2529895;29;20071;-85
2023/03/24 01:35:32;;;;;;;10.18;5.40;;;;;;;12.46;95.03;97525.00;2530689;29;20048;-84
2023/03/24 01:36:48;;;;;;;8.55;5.18;;;;;;;12.48;94.87;97521.41;2530534;29;20159;-85
2023/03/24 01:38:07;;;;;;;12.10;5.57;;;;;;;12.55;92.24;97524.56;2529220;29;20502;-85
2023/03/24 01:39:23;;;;;;;7.93;5.03;;;;;;;12.34;94.78;97524.69;2531735;29;20076;-85
2023/03/24 01:40:41;;;;;;;8.65;4.10;;;;;;;12.09;98.38;97525.06;2525975;29;20053;-85
2023/03/24 01:41:57;;;;;;;8.10;4.70;;;;;;;12.41;95.99;97517.38;2529863;29;20531;-85
2023/03/24 01:43:19;;;;;;;6.38;4.03;;;;;;;12.42;95.44;97517.31;2531478;29;20075;-85
2023/03/24 01:44:36;;;;;;;8.90;4.13;;;;;;;12.29;95.32;97514.47;2532012;29;20570;-86
2023/03/24 01:46:14;;;;;;;9.90;4.75;;;;;;;12.28;95.33;97510.09;2531213;29;20056;-86
2023/03/24 01:47:30;;;;;;;7.57;4.28;;;;;;;12.57;93.95;97509.56;2532046;29;20501;-86
2023/03/24 01:49:00;;;;;;;8.43;4.28;;;;;;;12.65;92.35;97504.78;2533127;29;20055;-86
2023/03/24 01:50:17;;;;;;;8.27;4.10;;;;;;;12.74;89.87;97498.22;2531572;29;20148;-84
2023/03/24 01:51:42;;;;;;;8.38;3.47;;;;;;;12.68;91.44;97493.25;2531922;29;20071;-85
2023/03/24 01:52:58;;;;;;;6.47;4.13;;;;;;;12.64;90.12;97492.59;2532464;29;20610;-85
2023/03/24 01:54:20;;;;;;;5.18;3.28;;;;;;;12.75;89.71;97504.28;2530798;29;20079;-85
2023/03/24 01:55:37;;;;;;;7.07;3.78;;;;;;;12.71;90.93;97499.22;2532819;29;20852;-86
2023/03/24 01:57:01;;;;;;;10.25;4.35;;;;;;;12.82;90.31;97495.19;2532826;29;20071;-85
2023/03/24 01:58:17;;;;;;;8.95;4.15;;;;;;;12.87;89.09;97490.53;2531157;29;20080;-85
2023/03/24 01:59:36;;;;;;;7.10;3.67;;;;;;;12.79;88.55;97480.41;2532807;29;20075;-85
2023/03/24 02:00:52;;;;;;;7.75;3.95;;;;;;;12.48;91.64;97481.16;2531059;29;20052;-86
2023/03/24 02:02:08;;;;;;;7.03;3.88;;;;;;;12.66;90.91;97485.47;2527534;29;20147;-85
2023/03/24 02:03:25;;;;;;;6.82;3.80;;;;;;;12.77;88.86;97477.03;2532714;29;20067;-86
2023/03/24 02:04:44;;;;;;;6.97;3.65;;;;;;;12.60;89.87;97477.06;2531979;29;20048;-85
2023/03/24 02:06:01;;;;;;;6.07;3.55;;;;;;;12.67;88.91;97473.19;2532771;29;20056;-85
2023/03/24 02:07:35;;;;;;;6.85;3.55;;;;;;;12.54;89.82;97471.19;2531342;29;20048;-85
2023/03/24 02:08:56;;;;;;;6.68;3.42;;;;;;;12.37;91.93;97476.47;2531385;29;20063;-85
2023/03/24 02:10:15;;;;;;;5.53;2.78;;;;;;;12.10;98.93;97482.16;2532478;29;20494;-85
2023/03/24 02:11:33;;;;;;;6.95;2.42;;;;;;;12.37;95.84;97481.72;2532924;29;20496;-85
2023/03/24 02:12:49;;;;;;;4.47;2.53;;;;;;;12.57;93.29;97468.44;2530881;29;20063;-85
2023/03/24 02:14:06;;;;;;;4.32;2.70;;;;;;;12.58;91.80;97469.25;2531317;29;20139;-85
2023/03/24 02:15:26;;;;;;;3.63;2.70;;;;;;;12.72;91.37;97468.56;2530591;29;20097;-85
2023/03/24 02:17:02;;;;;;;4.15;2.67;;;;;;;12.93;88.73;97471.81;2532358;29;20059;-86
2023/03/24 02:18:32;;;;;;;3.80;2.45;;;;;;;12.70;89.32;97468.63;2532375;29;20084;-85
2023/03/24 02:19:53;;;;;;;6.32;3.30;;;;;;;12.88;89.77;97465.13;2530725;29;20064;-85
2023/03/24 02:21:27;;;;;;;4.50;2.45;;;;;;;12.39;92.57;97471.97;2532753;29;20058;-86
2023/03/24 02:23:01;;;;;;;4.88;2.67;;;;;;;12.43;92.52;97466.50;2531844;29;20044;-85
2023/03/24 02:24:44;;;;;;;4.57;2.33;;;;;;;12.52;92.62;97469.59;2527305;29;20091;-85
2023/03/24 02:26:21;;;;;;;4.00;2.53;;;;;;;12.13;98.50;97477.63;2531835;29;20053;-85
2023/03/24 02:27:55;;;;;;;5.22;2.45;;;;;;;12.06;97.86;97462.28;2532411;29;20058;-85
2023/03/24 02:29:37;;;;;;;5.03;2.75;;;;;;;12.28;95.65;97459.41;2527014;29;20099;-85
2023/03/24 02:31:33;;;;;;;4.80;2.67;;;;;;;12.53;93.75;97456.38;2531095;29;20576;-85
2023/03/24 02:33:03;;;;;;;3.65;2.45;;;;;;;12.55;93.00;97456.28;2532589;29;20056;-86
2023/03/24 02:34:28;;;;;;;5.28;2.63;;;;;;;11.93;100.00;97451.47;2527581;29;20060;-85
2023/03/24 02:36:06;;;;;;;4.65;2.42;;;;;;;12.38;94.87;97454.53;2531883;29;20487;-85
2023/03/24 02:37:50;;;;;;;3.70;2.50;;;;;;;12.35;94.42;97446.81;2532650;29;20056;-85
2023/03/24 02:39:36;;;;;;;3.13;2.50;;;;;;;12.50;92.87;97451.28;2533388;29;20143;-85
2023/03/24 02:40:55;;;;;;;4.45;2.55;;;;;;;12.48;92.38;97455.75;2530403;29;20052;-85
2023/03/24 02:42:24;;;;;;;4.82;2.42;;;;;;;12.38;92.03;97454.53;2530418;29;20051;-85
2023/03/24 02:43:43;;;;;;;4.05;2.60;;;;;;;12.14;94.70;97457.47;2531320;29;20496;-85
2023/03/24 02:45:16;;;;;;;2.70;1.98;;;;;;;12.00;97.38;97460.75;2531200;29;20074;-85
2023/03/24 02:46:37;;;;;;;4.95;2.40;;;;;;;12.05;99.19;97457.94;2542050;29;20142;-86
2023/03/24 02:48:18;;;;;;;3.42;2.25;;;;;;;12.23;95.32;97461.44;2538058;29;20143;-85
2023/03/24 02:50:05;;;;;;;5.40;3.13;;;;;;;12.40;94.24;97453.53;2532984;29;20091;-86
2023/03/24 02:51:51;;;;;;;3.53;2.30;;;;;;;12.44;92.62;97456.88;2530827;29;20056;-85
2023/03/24 02:53:16;;;;;;;4.68;2.75;;;;;;;12.19;96.19;97455.47;2531530;29;20338;-85
2023/03/24 02:54:56;;;;;;;4.25;2.55;;;;;;;12.15;95.79;97459.16;2530205;29;20072;-87
2023/03/24 02:56:33;;;;;;;4.05;2.58;;;;;;;12.15;97.24;97453.91;2531453;29;20071;-85
2023/03/24 02:57:56;;;;;;;4.07;2.53;;;;;;;12.00;100.00;97453.72;2532028;29;20562;-87
2023/03/24 02:59:21;;;;;;;;;;;;;;;12.15;97.95;97452.16;2532479;29;20157;-85
2023/03/24 03:00:58;;;;;;;6.47;2.88;;;;;;;12.10;95.66;97455.94;2531699;29;19931;-86
2023/03/24 03:02:29;;;;;;;5.35;3.45;;;;;;;11.93;100.00;97464.59;2527349;29;20056;-85
2023/03/24 03:03:52;;;;;;;5.30;2.78;;;;;;;12.03;98.07;97458.00;2530687;29;20044;-85
2023/03/24 03:05:18;;;;;;;4.40;2.40;;;;;;;11.91;100.00;97451.59;2531593;29;20090;-85
2023/03/24 03:06:39;;;;;;;5.68;2.70;;;;;;;12.13;99.03;97455.78;2527200;29;20625;-85
2023/03/24 03:07:59;;;;;;;4.60;2.83;;;;;;;12.31;96.76;97461.88;2526986;29;20480;-85
2023/03/24 03:09:19;;;;;;;3.53;2.55;;;;;;;12.35;95.75;97457.31;2532354;29;20045;-85
2023/03/24 03:10:39;;;;;;;3.83;2.20;;;;;;;12.09;95.61;97460.34;2531185;29;20556;-85
2023/03/24 03:11:58;;;;;;;3.58;2.42;;;;;;;12.10;97.71;97462.03;2532968;29;20048;-86
2023/03/24 03:13:26;;;;;;;4.68;2.50;;;;;;;11.83;100.00;97451.97;2526953;29;20052;-85
2023/03/24 03:14:54;;;;;;;4.18;2.30;;;;;;;11.93;100.00;97457.59;2532307;29;20126;-86
2023/03/24 03:16:17;;;;;;;4.45;2.40;;;;;;;11.89;100.00;97457.81;2530975;29;20127;-86
2023/03/24 03:17:47;;;;;;;3.35;2.10;;;;;;;12.09;100.00;97464.72;2532396;29;20415;-85
2023/03/24 03:19:28;;;;;;;4.07;2.30;;;;;;;12.05;100.00;97461.41;2526865;29;20152;-85
2023/03/24 03:20:49;;;;;;;3.40;2.40;;;;;;;12.20;97.81;97465.03;2531919;29;20059;-86
2023/03/24 03:22:10;;;;;;;4.38;2.38;;;;;;;12.48;96.45;97455.75;2532063;29;20051;-86
2023/03/24 03:23:39;;;;;;;3.63;2.65;;;;;;;12.64;93.41;97455.81;2531608;29;20091;-85
2023/03/24 03:25:00;;;;;;;4.85;2.65;;;;;;;12.64;92.88;97460.22;2530526;29;20465;-86
2023/03/24 03:26:22;;;;;;;7.22;2.50;;;;;;;12.69;91.61;97460.81;2532514;29;20488;-85
2023/03/24 03:27:43;;;;;;;3.35;2.42;;;;;;;12.47;93.13;97455.84;2530878;29;20052;-86
2023/03/24 03:29:18;;;;;;;4.78;2.83;;;;;;;12.32;95.80;97462.72;2532022;29;20060;-85
2023/03/24 03:30:38;;;;;;;5.18;2.83;;;;;;;12.43;94.54;97453.38;2551037;29;20044;-85
2023/03/24 03:32:06;;;;;;;3.92;2.67;;;;;;;12.59;92.25;97452.56;2536786;29;20048;-85
2023/03/24 03:33:32;;;;;;;4.55;2.60;;;;;;;12.50;93.56;97453.91;2531290;29;20096;-85
2023/03/24 03:35:27;;;;;;;4.68;2.50;;;;;;;12.33;95.86;97453.94;2529832;29;20654;-85
2023/03/24 03:36:52;;;;;;;3.65;2.40;;;;;;;12.52;94.45;97453.84;2531744;29;20080;-86
2023/03/24 03:38:21;;;;;;;3.33;2.17;;;;;;;12.55;92.05;97451.88;2531339;29;20072;-85
2023/03/24 03:39:46;;;;;;;3.88;2.38;;;;;;;12.65;90.63;97461.91;2531718;29;20107;-85
2023/03/24 03:41:04;;;;;;;4.57;3.42;;;;;;;12.56;92.56;97461.44;2532282;29;20084;-84
2023/03/24 03:42:21;;;;;;;4.82;2.80;;;;;;;12.68;91.55;97467.00;2531592;29;20056;-85
2023/03/24 03:43:36;;;;;;;5.65;2.75;;;;;;;12.77;90.86;97465.66;2529988;29;20477;-84
2023/03/24 03:44:53;;;;;;;6.40;3.15;;;;;;;12.22;95.78;97471.06;2531161;29;20091;-84
2023/03/24 03:46:08;;;;;;;5.10;3.00;;;;;;;12.35;95.63;97470.44;2530210;29;20056;-84
2023/03/24 03:47:24;;;;;;;7.97;3.80;;;;;;;12.55;92.90;97462.38;2533054;29;20336;-85
2023/03/24 03:48:40;;;;;;;6.78;3.80;;;;;;;12.40;93.48;97469.28;2532337;29;20071;-84
2023/03/24 03:49:56;;;;;;;6.90;3.58;;;;;;;12.47;93.69;97467.19;2529726;29;20588;-86
2023/03/24 03:51:13;;;;;;;4.90;3.40;;;;;;;12.56;92.19;97464.06;2530036;29;20063;-84
2023/03/24 03:52:29;;;;;;;6.57;3.85;;;;;;;12.47;93.84;97469.81;2526571;29;20091;-86
2023/03/24 03:53:54;;;;;;;6.50;3.03;;;;;;;12.58;91.88;97466.63;2529980;29;20048;-86
2023/03/24 03:55:11;;;;;;;6.03;3.47;;;;;;;12.65;91.73;97473.28;2529931;29;20056;-85
2023/03/24 03:56:29;;;;;;;4.93;3.35;;;;;;;12.80;89.86;97470.78;2530084;29;20480;-85
2023/03/24 03:57:45;;;;;;;5.50;3.10;;;;;;;12.79;89.22;97466.44;2529929;29;20503;-85
2023/03/24 03:59:01;;;;;;;4.53;3.22;;;;;;;12.81;87.55;97468.06;2531237;29;20071;-85
2023/03/24 04:00:21;;;;;;;3.78;2.67;;;;;;;12.83;88.72;97471.44;2532145;29;20080;-85
2023/03/24 04:01:36;;;;;;;5.38;2.78;;;;;;;12.85;88.16;97466.13;2531807;29;20052;-84
2023/03/24 04:03:10;;;;;;;4.55;2.70;;;;;;;12.85;88.99;97463.50;2532629;29;20104;-85
2023/03/24 04:04:39;;;;;;;4.57;2.80;;;;;;;12.76;89.77;97461.34;2530807;29;20060;-86
2023/03/24 04:06:05;;;;;;;3.80;2.55;;;;;;;12.73;88.54;97459.75;2530079;29;20512;-85
2023/03/24 04:07:56;;;;;;;4.68;2.88;;;;;;;12.90;88.88;97456.19;2529767;29;20108;-85
2023/03/24 04:09:34;;;;;;;4.20;2.88;;;;;;;12.93;88.29;97460.44;2512817;29;20087;-85
2023/03/24 04:11:18;;;;;;;8.15;3.60;;;;;;;12.53;92.06;97461.63;2530960;29;20056;-84
2023/03/24 04:13:15;;;;;;;5.35;2.85;;;;;;;12.62;91.44;97457.66;2531753;29;20048;-85
2023/03/24 04:15:01;;;;;;;4.85;3.05;;;;;;;12.70;90.37;97457.25;2526424;29;20473;-84
2023/03/24 04:16:53;;;;;;;5.32;3.08;;;;;;;12.63;91.30;97461.16;2531288;29;20488;-85
2023/03/24 04:18:28;;;;;;;4.95;2.85;;;;;;;12.86;89.28;97449.41;2530323;29;20067;-85
2023/03/24 04:20:11;;;;;;;6.28;3.35;;;;;;;12.68;90.68;97449.47;2529696;29;20382;-85
2023/03/24 04:21:32;;;;;;;5.05;3.10;;;;;;;12.91;88.63;97459.69;2532473;29;20119;-85
2023/03/24 04:23:00;;;;;;;4.30;2.80;;;;;;;12.64;90.72;97463.69;2532192;29;20051;-85
2023/03/24 04:24:25;;;;;;;6.22;2.85;;;;;;;12.77;88.73;97456.00;2530446;29;20098;-85
2023/03/24 04:26:17;;;;;;;4.80;2.92;;;;;;;12.70;89.31;97455.50;2532322;29;20137;-87
2023/03/24 04:27:45;;;;;;;6.95;3.10;;;;;;;12.82;88.73;97446.09;2530607;29;20048;-85
2023/03/24 04:29:30;;;;;;;7.53;3.20;;;;;;;12.71;89.76;97446.69;2526162;29;20048;-84
2023/03/24 04:30:51;;;;;;;5.18;2.70;;;;;;;12.72;89.53;97442.28;2527031;29;20048;-85
2023/03/24 04:32:18;;;;;;;5.07;2.78;;;;;;;12.82;88.56;97440.03;2531435;29;20053;-85
2023/03/24 04:33:47;;;;;;;4.10;2.67;;;;;;;12.50;91.21;97448.66;2531347;29;20492;-85
2023/03/24 04:35:13;;;;;;;4.53;2.50;;;;;;;12.72;89.95;97450.16;2529331;29;20060;-84
2023/03/24 04:36:44;;;;;;;4.35;2.70;;;;;;;12.73;89.80;97453.63;2530363;29;20500;-88
2023/03/24 04:38:04;;;;;;;4.03;2.42;;;;;;;12.79;88.68;97453.31;2531491;29;20088;-86
2023/03/24 04:39:27;;;;;;;5.15;2.17;;;;;;;12.76;88.79;97451.69;2529767;29;20693;-85
2023/03/24 04:40:48;;;;;;;4.22;2.33;;;;;;;12.86;87.17;97446.78;2532447;29;20051;-84
2023/03/24 04:42:09;;;;;;;4.93;2.88;;;;;;;12.96;86.51;97440.13;2530970;29;20210;-85
2023/03/24 04:43:28;;;;;;;4.45;2.45;;;;;;;13.03;85.97;97434.53;2531289;29;20052;-87
2023/03/24 04:44:44;;;;;;;8.88;2.80;;;;;;;13.02;85.95;97423.19;2531087;29;20064;-86
2023/03/24 04:46:00;;;;;;;3.97;2.45;;;;;;;13.07;85.14;97422.94;2531807;29;20091;-86
2023/03/24 04:47:19;;;;;;;4.95;2.50;;;;;;;13.10;85.40;97420.97;2530855;29;20055;-87
2023/03/24 04:48:35;;;;;;;5.38;2.60;;;;;;;13.05;84.86;97416.88;2530327;29;20052;-87
2023/03/24 04:49:58;;;;;;;3.42;2.33;;;;;;;13.05;84.98;97411.63;2530800;29;20045;-86
2023/03/24 04:51:17;;;;;;;3.08;2.03;;;;;;;12.99;85.27;97407.56;2528039;29;20049;-86
2023/03/24 04:52:33;;;;;;;5.10;2.38;;;;;;;13.02;85.19;97403.94;2525818;29;20048;-88
2023/03/24 04:53:49;;;;;;;4.85;2.80;;;;;;;13.16;83.67;97409.28;2529951;29;20052;-85
2023/03/24 04:55:36;;;;;;;3.05;2.10;;;;;;;13.07;84.23;97400.13;2530800;29;20049;-86
2023/03/24 04:56:53;;;;;;;3.72;2.13;;;;;;;13.14;84.20;97401.50;2531774;29;20653;-86
2023/03/24 04:58:09;;;;;;;2.58;1.70;;;;;;;13.25;83.13;97400.88;2531619;29;20088;-87
2023/03/24 04:59:25;;;;;;;2.60;1.80;;;;;;;13.41;81.48;97395.63;2530509;29;20056;-85
2023/03/24 05:00:42;;;;;;;4.55;1.70;;;;;;;13.50;81.09;97391.66;2526183;29;20104;-86
2023/03/24 05:02:02;;;;;;;3.08;1.80;;;;;;;13.47;80.56;97385.72;2540267;29;20419;-87
2023/03/24 05:03:18;;;;;;;4.20;1.70;;;;;;;13.50;80.67;97383.78;2531173;29;20606;-88
2023/03/24 05:04:35;;;;;;;5.13;1.67;;;;;;;13.58;80.13;97387.72;2532268;29;20052;-85
2023/03/24 05:05:52;;;;;;;3.03;2.13;;;;;;;13.76;78.59;97375.31;2531746;29;20139;-86
2023/03/24 05:07:07;;;;;;;3.17;1.98;;;;;;;13.69;78.96;97380.94;2530629;29;20048;-88
2023/03/24 05:08:23;;;;;;;3.47;2.45;;;;;;;13.75;78.14;97376.25;2531917;29;20068;-86
2023/03/24 05:09:39;;;;;;;2.95;1.90;;;;;;;13.51;80.02;97374.94;2529414;29;20056;-86
2023/03/24 05:10:55;;;;;;;2.78;1.90;;;;;;;13.54;80.04;97371.28;2530383;29;20071;-86
2023/03/24 05:12:11;;;;;;;5.78;2.50;;;;;;;13.58;79.45;97375.44;2530225;29;20056;-85
2023/03/24 05:13:27;;;;;;;3.35;2.50;;;;;;;13.38;81.39;97372.13;2531944;29;20083;-86
2023/03/24 05:14:43;;;;;;;3.38;2.00;;;;;;;13.48;81.01;97372.50;2530898;29;20072;-84
2023/03/24 05:15:58;;;;;;;2.67;2.03;;;;;;;13.65;79.65;97371.50;2530285;29;20048;-85
2023/03/24 05:17:14;;;;;;;4.70;2.33;;;;;;;13.45;81.20;97361.31;2532272;29;20059;-86
2023/03/24 05:18:33;;;;;;;3.83;2.67;;;;;;;13.26;82.38;97372.81;2532980;29;20044;-87
2023/03/24 05:19:49;;;;;;;6.55;3.25;;;;;;;13.37;82.14;97369.59;2531697;29;20068;-86
2023/03/24 05:21:05;;;;;;;4.00;2.50;;;;;;;13.27;82.83;97367.47;2533148;29;20748;-86
2023/03/24 05:22:21;;;;;;;6.45;4.07;;;;;;;13.34;82.45;97364.47;2531308;29;20044;-86
2023/03/24 05:23:37;;;;;;;6.45;3.50;;;;;;;13.42;82.30;97360.50;2532754;29;20067;-86
2023/03/24 05:24:53;;;;;;;1.83;1.40;;;;;;;13.20;84.65;97375.78;2528235;29;20393;-87
2023/03/24 05:26:08;;;;;;;3.55;2.22;;;;;;;13.46;83.17;97376.13;2533106;29;20056;-86
2023/03/24 05:27:24;;;;;;;5.03;1.88;;;;;;;13.58;81.89;97383.31;2531827;29;20051;-86
2023/03/24 05:28:40;;;;;;;3.25;2.03;;;;;;;13.70;81.71;97380.00;2531357;29;20116;-87
2023/03/24 05:29:56;;;;;;;2.42;1.85;;;;;;;13.64;81.58;97372.44;2532660;29;20052;-84
2023/03/24 05:31:11;;;;;;;3.15;1.70;;;;;;;13.83;80.04;97372.22;2534053;29;20051;-86
2023/03/24 05:32:27;;;;;;;1.98;1.55;;;;;;;13.85;79.88;97369.50;2532246;29;20052;-84
2023/03/24 05:33:43;;;;;;;2.80;1.90;;;;;;;13.91;79.34;97363.03;2532833;29;20049;-85
2023/03/24 05:34:59;;;;;;;2.05;1.60;;;;;;;13.87;79.63;97366.78;2532133;29;20551;-85
2023/03/24 05:36:15;;;;;;;2.65;1.60;;;;;;;13.87;80.21;97369.41;2532453;29;20351;-87
2023/03/24 05:37:31;;;;;;;2.38;1.50;;;;;;;13.88;80.83;97371.97;2530542;29;20060;-87
2023/03/24 05:38:46;;;;;;;3.95;3.00;;;;;;;14.07;78.14;97370.84;2533508;29;20064;-87
2023/03/24 05:40:02;;;;;;;2.80;2.08;;;;;;;13.98;79.30;97359.97;2531448;29;20127;-85
2023/03/24 05:41:18;;;;;;;2.92;1.80;;;;;;;14.05;78.61;97363.06;2527555;29;20544;-87
2023/03/24 05:42:33;;;;;;;3.25;1.92;;;;;;;14.14;78.17;97359.03;2531582;29;20630;-85
2023/03/24 05:43:49;;;;;;;3.30;1.92;;;;;;;14.02;78.68;97351.88;2533420;29;20095;-87
2023/03/24 05:45:05;;;;;;;2.40;1.73;;;;;;;14.05;78.00;97363.06;2527928;29;20060;-86
2023/03/24 05:46:21;;;;;;;2.58;1.70;;;;;;;13.95;78.67;97361.91;2532019;29;20697;-87
2023/03/24 05:47:37;;;;;;;3.95;1.80;;;;;;;14.06;77.83;97354.25;2531326;29;20049;-85
2023/03/24 05:48:53;;;;;;;3.20;1.80;;;;;;;14.00;78.50;97359.03;2527608;29;20176;-86
2023/03/24 05:50:09;;;;;;;2.50;2.00;;;;;;;14.03;77.80;97361.47;2531016;29;20098;-86
2023/03/24 05:51:25;;;;;;;4.22;2.20;;;;;;;14.29;76.11;97356.41;2531917;29;20119;-85
2023/03/24 05:52:40;;;;;;;6.18;2.20;;;;;;;14.10;76.22;97360.13;2531790;29;20052;-84
2023/03/24 05:53:56;;;;;;;4.25;2.20;;;;;;;14.32;75.08;97358.84;2533013;29;20563;-85
2023/03/24 05:55:12;;;;;;;2.92;2.20;;;;;;;14.23;75.45;97355.00;2532623;29;20099;-85
2023/03/24 05:56:27;;;;;;;5.22;1.80;;;;;;;14.45;74.57;97358.94;2531397;29;20084;-85
2023/03/24 05:57:43;;;;;;;3.08;2.17;;;;;;;14.18;76.04;97355.28;2531385;29;20171;-85
2023/03/24 05:58:59;;;;;;;4.53;2.20;;;;;;;14.15;76.14;97365.13;2532528;29;20048;-86
2023/03/24 06:00:17;;;;;;;3.03;2.20;;;;;;;14.19;75.56;97362.22;2530606;29;20134;-86
2023/03/24 06:01:33;;;;;;;3.65;2.30;;;;;;;13.82;78.68;97359.16;2532541;29;20052;-85
2023/03/24 06:02:49;;;;;;;4.00;2.15;;;;;;;13.93;78.58;97361.16;2530875;29;20059;-88
2023/03/24 06:04:05;;;;;;;4.38;2.28;;;;;;;14.05;77.93;97356.94;2531290;29;20052;-86
2023/03/24 06:05:21;;;;;;;4.47;2.28;;;;;;;14.03;77.61;97353.56;2527434;29;20060;-85
2023/03/24 06:06:37;;;;;;;5.40;2.05;;;;;;;13.95;78.59;97354.03;2531728;29;20467;-87
2023/03/24 06:07:57;;;;;;;4.30;2.42;;;;;;;14.05;77.54;97352.53;2531835;29;20063;-85
2023/03/24 06:09:15;;;;;;;3.45;2.33;;;;;;;14.25;76.69;97355.75;2531121;29;20071;-84
2023/03/24 06:10:31;;;;;;;4.70;2.20;;;;;;;14.27;77.04;97352.09;2532448;29;20056;-85
2023/03/24 06:11:46;;;;;;;2.90;2.10;;;;;;;14.23;77.59;97347.94;2533102;29;20052;-85
2023/03/24 06:13:02;;;;;;;3.75;2.10;;;;;;;14.16;77.80;97338.72;2531172;29;20072;-85
2023/03/24 06:14:18;;;;;;;6.00;2.22;;;;;;;14.41;75.97;97339.88;2530551;29;20988;-85
2023/03/24 06:15:34;;;;;;;4.20;2.10;;;;;;;14.25;77.13;97334.69;2533440;29;20365;-87
2023/03/24 06:16:50;;;;;;;4.00;2.20;;;;;;;14.27;76.60;97336.31;2531014;29;20091;-86
2023/03/24 06:18:06;;;;;;;4.85;2.17;;;;;;;14.18;77.44;97338.63;2530432;29;20049;-87
2023/03/24 06:19:23;;;;;;;4.18;1.92;;;;;;;14.25;77.40;97337.31;2530770;29;20523;-86
2023/03/24 06:20:40;;;;;;;3.67;2.28;;;;;;;14.03;78.77;97335.97;2530586;29;20056;-84
2023/03/24 06:22:01;;;;;;;3.13;2.05;;;;;;;14.31;76.95;97333.47;2531728;29;20080;-85
2023/03/24 06:23:17;;;;;;;4.35;2.38;;;;;;;14.40;76.36;97339.00;2532345;29;20144;-85